Time;durP1;ratioP1;P1;durP2;ratioP2;P2;SDS_P1;SDS_P2;PMS_P1;PMS_P2;Temp;Humidity;BMP_temperature;BMP_pressure;BME280_temperature;BME280_humidity;BME280_pressure;Samples;Min_cycle;Max_cycle;Signal;HPM_P1;HPM_P2
2021/08/17 00:01:10;;;;;;;;;;;;;;;20.13;100.00;99190.01;1678902;84;20183;-85
2021/08/17 00:03:37;;;;;;;;;;;;;;;20.07;100.00;99173.05;1680202;84;20485;-86
2021/08/17 00:06:04;;;;;;;;;;;;;;;20.09;100.00;99163.42;1679437;84;21086;-86
2021/08/17 00:08:29;;;;;;;;;;;;;;;20.18;100.00;99161.14;1677893;84;20146;-85
2021/08/17 00:10:56;;;;;;;;;;;;;;;20.14;100.00;99156.80;1660172;84;20162;-86
2021/08/17 00:13:22;;;;;;;;;;;;;;;20.05;100.00;99148.34;1679903;84;20107;-87
2021/08/17 00:15:47;;;;;;;;;;;;;;;20.14;100.00;99147.95;1679024;84;20133;-83
2021/08/17 00:18:13;;;;;;;;;;;;;;;20.19;100.00;99148.03;1682735;83;21184;-83
2021/08/17 00:20:39;;;;;;;;;;;;;;;20.28;100.00;99153.27;1682295;83;20309;-84
2021/08/17 00:23:06;;;;;;;;;;;;;;;20.27;100.00;99151.62;1680617;83;20158;-86
2021/08/17 00:25:34;;;;;;;;;;;;;;;20.23;100.00;99146.49;1660369;84;20186;-86
2021/08/17 00:27:59;;;;;;;;;;;;;;;20.21;100.00;99152.61;1680888;84;20288;-86
2021/08/17 00:30:25;;;;;;;;;;;;;;;20.14;100.00;99157.34;1680100;84;21380;-86
2021/08/17 00:32:50;;;;;;;;;;;;;;;20.13;100.00;99162.41;1678490;84;20186;-87
2021/08/17 00:35:18;;;;;;;;;;;;;;;20.18;100.00;99155.77;1681403;84;20710;-84
2021/08/17 00:37:43;;;;;;;;;;;;;;;20.11;100.00;99149.78;1662234;84;20176;-84
2021/08/17 00:40:12;;;;;;;;;;;;;;;20.16;100.00;99149.86;1680329;84;20443;-84
2021/08/17 00:42:40;;;;;;;;;;;;;;;20.02;100.00;99148.83;1679210;84;21844;-85
2021/08/17 00:45:06;;;;;;;;;;;;;;;20.02;100.00;99158.20;1680923;83;20170;-84
2021/08/17 00:47:33;;;;;;;;;;;;;;;19.98;100.00;99170.48;1682400;83;20239;-85
2021/08/17 00:49:59;;;;;;;;;;;;;;;19.93;100.00;99194.48;1680451;84;20168;-85
2021/08/17 00:52:24;;;;;;;;;;;;;;;19.92;100.00;99196.91;1677657;84;20165;-85
2021/08/17 00:54:50;;;;;;;;;;;;;;;19.74;100.00;99193.33;1672457;83;21089;-85
2021/08/17 00:57:17;;;;;;;;;;;;;;;19.63;100.00;99180.80;1634273;85;20318;-86
2021/08/17 00:59:44;;;;;;;;;;;;;;;19.64;100.00;99168.22;1626751;86;20132;-85
2021/08/17 01:02:12;;;;;;;;;;;;;;;19.53;100.00;99196.16;1654174;86;20140;-86
2021/08/17 01:04:39;;;;;;;;;;;;;;;19.49;100.00;99202.23;1656178;84;20164;-85
2021/08/17 01:07:07;;;;;;;;;;;;;;;19.34;100.00;99199.55;1657682;84;21276;-84
2021/08/17 01:09:32;;;;;;;;;;;;;;;19.19;100.00;99193.88;1654818;85;20238;-84
2021/08/17 01:12:00;;;;;;;;;;;;;;;19.21;100.00;99207.83;1652530;86;20262;-85
2021/08/17 01:14:25;;;;;;;;;;;;;;;19.17;100.00;99201.31;1652387;85;20142;-84
2021/08/17 01:16:51;;;;;;;;;;;;;;;19.17;100.00;99190.10;1655648;84;20132;-84
2021/08/17 01:19:19;;;;;;;;;;;;;;;19.27;100.00;99192.70;1655775;86;21981;-84
2021/08/17 01:21:44;;;;;;;;;;;;;;;19.32;100.00;99186.91;1634013;85;20166;-84
2021/08/17 01:24:12;;;;;;;;;;;;;;;19.31;100.00;99181.28;1658730;85;20116;-84
2021/08/17 01:26:37;;;;;;;;;;;;;;;19.35;100.00;99174.38;1656651;84;20179;-84
2021/08/17 01:29:03;;;;;;;;;;;;;;;19.41;100.00;99166.47;1657477;84;20282;-84
2021/08/17 01:31:29;;;;;;;;;;;;;;;19.51;100.00;99173.34;1657140;85;21043;-83
2021/08/17 01:33:56;;;;;;;;;;;;;;;19.44;100.00;99176.70;1656342;85;20156;-83
2021/08/17 01:36:22;;;;;;;;;;;;;;;19.53;100.00;99181.97;1656634;84;20192;-83
2021/08/17 01:38:48;;;;;;;;;;;;;;;19.49;100.00;99186.97;1653230;85;20560;-84
2021/08/17 01:41:14;;;;;;;;;;;;;;;19.43;100.00;99197.83;1653708;85;20212;-83
2021/08/17 01:43:40;;;;;;;;;;;;;;;19.37;100.00;99195.06;1655520;84;21094;-83
2021/08/17 01:46:06;;;;;;;;;;;;;;;19.41;100.00;99202.62;1655814;86;20157;-82
2021/08/17 01:48:31;;;;;;;;;;;;;;;19.37;100.00;99198.24;1631136;86;20148;-81
2021/08/17 01:50:58;;;;;;;;;;;;;;;19.34;100.00;99210.25;1655162;86;20452;-82
2021/08/17 01:53:26;;;;;;;;;;;;;;;19.25;100.00;99215.69;1654232;84;20166;-85
2021/08/17 01:55:53;;;;;;;;;;;;;;;19.13;100.00;99225.60;1673029;84;21103;-85
2021/08/17 01:58:20;;;;;;;;;;;;;;;19.01;100.00;99229.08;1682281;84;20210;-85
2021/08/17 02:00:46;;;;;;;;;;;;;;;18.90;100.00;99243.29;1679466;84;20127;-85
2021/08/17 02:03:13;;;;;;;;;;;;;;;18.91;100.00;99237.41;1634859;84;20216;-84
2021/08/17 02:05:40;;;;;;;;;;;;;;;18.78;100.00;99239.27;1681524;84;20135;-85
2021/08/17 02:08:06;;;;;;;;;;;;;;;18.76;100.00;99245.88;1676024;84;21107;-85
2021/08/17 02:10:31;;;;;;;;;;;;;;;18.57;100.00;99247.32;1678812;84;20177;-84
2021/08/17 02:12:57;;;;;;;;;;;;;;;18.52;100.00;99224.48;1682467;84;20162;-84
2021/08/17 02:15:22;;;;;;;;;;;;;;;18.57;100.00;99225.93;1675610;84;20786;-84
2021/08/17 02:17:48;;;;;;;;;;;;;;;18.43;100.00;99249.92;1679764;84;20211;-84
2021/08/17 02:20:14;;;;;;;;;;;;;;;18.44;100.00;99232.82;1680612;83;21089;-84
2021/08/17 02:22:39;;;;;;;;;;;;;;;18.38;100.00;99218.53;1684240;83;20194;-84
2021/08/17 02:25:06;;;;;;;;;;;;;;;18.25;100.00;99206.17;1677535;84;20182;-84
2021/08/17 02:27:33;;;;;;;;;;;;;;;18.28;100.00;99215.07;1680040;84;20169;-84
2021/08/17 02:29:59;;;;;;;;;;;;;;;18.24;100.00;99209.91;1652607;84;20192;-83
2021/08/17 02:32:24;;;;;;;;;;;;;;;18.18;100.00;99225.52;1681382;84;20691;-84
2021/08/17 02:34:50;;;;;;;;;;;;;;;18.24;100.00;99216.59;1678279;84;20624;-86
2021/08/17 02:37:16;;;;;;;;;;;;;;;18.25;100.00;99223.55;1685170;84;20151;-86
2021/08/17 02:39:44;;;;;;;;;;;;;;;18.17;100.00;99235.91;1677761;84;20186;-85
2021/08/17 02:42:12;;;;;;;;;;;;;;;18.10;100.00;99252.05;1663325;83;20156;-87
2021/08/17 02:44:39;;;;;;;;;;;;;;;18.02;100.00;99274.25;1678784;84;21121;-85
2021/08/17 02:47:08;;;;;;;;;;;;;;;17.97;100.00;99280.27;1681555;84;20183;-85
2021/08/17 02:49:33;;;;;;;;;;;;;;;18.07;100.00;99287.23;1687476;83;20155;-84
2021/08/17 02:52:03;;;;;;;;;;;;;;;18.14;100.00;99272.97;1683332;83;21235;-85
2021/08/17 02:54:28;;;;;;;;;;;;;;;17.97;100.00;99274.12;1650785;84;20122;-84
2021/08/17 02:56:53;;;;;;;;;;;;;;;17.93;100.00;99271.91;1683056;83;21897;-85
2021/08/17 02:59:19;;;;;;;;;;;;;;;17.76;100.00;99282.89;1688324;84;20166;-84
2021/08/17 03:01:44;;;;;;;;;;;;;;;17.73;100.00;99272.66;1688384;84;20134;-84
2021/08/17 03:04:14;;;;;;;;;;;;;;;17.75;100.00;99271.38;1689031;84;20475;-84
2021/08/17 03:06:39;;;;;;;;;;;;;;;17.67;100.00;99262.88;1690979;84;20160;-84
2021/08/17 03:09:05;;;;;;;;;;;;;;;17.64;100.00;99261.98;1687238;84;21861;-84
2021/08/17 03:11:30;;;;;;;;;;;;;;;17.51;100.00;99261.11;1687419;83;20138;-84
2021/08/17 03:13:57;;;;;;;;;;;;;;;17.61;100.00;99255.77;1690336;84;20591;-84
2021/08/17 03:16:24;;;;;;;;;;;;;;;17.49;100.00;99261.83;1687068;83;20127;-84
2021/08/17 03:18:49;;;;;;;;;;;;;;;17.52;100.00;99257.38;1688198;83;20159;-83
2021/08/17 03:21:15;;;;;;;;;;;;;;;17.47;100.00;99258.58;1687637;83;21105;-84
2021/08/17 03:23:43;;;;;;;;;;;;;;;17.58;100.00;99259.16;1687754;83;20162;-83
2021/08/17 03:26:10;;;;;;;;;;;;;;;17.63;100.00;99259.02;1666103;84;20468;-83
2021/08/17 03:28:36;;;;;;;;;;;;;;;17.61;100.00;99262.44;1684056;84;20156;-84
2021/08/17 03:31:03;;;;;;;;;;;;;;;17.58;100.00;99256.48;1687138;84;20150;-84
2021/08/17 03:33:28;;;;;;;;;;;;;;;17.45;100.00;99255.33;1655021;84;21123;-83
2021/08/17 03:35:54;;;;;;;;;;;;;;;17.54;100.00;99251.31;1686507;83;20167;-85
2021/08/17 03:38:19;;;;;;;;;;;;;;;17.50;100.00;99256.80;1685690;84;20154;-84
2021/08/17 03:40:45;;;;;;;;;;;;;;;17.51;100.00;99245.09;1689054;84;20838;-85
2021/08/17 03:43:11;;;;;;;;;;;;;;;17.43;100.00;99266.72;1685103;83;20142;-85
2021/08/17 03:45:37;;;;;;;;;;;;;;;17.49;100.00;99252.48;1686227;84;21098;-85
2021/08/17 03:48:03;;;;;;;;;;;;;;;17.48;100.00;99258.05;1683634;84;20155;-85
2021/08/17 03:50:29;;;;;;;;;;;;;;;17.54;100.00;99262.00;1691433;83;20265;-86
2021/08/17 03:52:54;;;;;;;;;;;;;;;17.42;100.00;99259.78;1681785;84;20138;-86
2021/08/17 03:55:20;;;;;;;;;;;;;;;17.46;100.00;99254.27;1686255;84;20170;-84
2021/08/17 03:57:46;;;;;;;;;;;;;;;17.45;100.00;99258.49;1680390;84;22488;-84
2021/08/17 04:00:16;;;;;;;;;;;;;;;17.44;100.00;99259.02;1663217;84;20300;-84
2021/08/17 04:02:42;;;;;;;;;;;;;;;17.41;100.00;99257.61;1650185;84;20215;-85
2021/08/17 04:05:10;;;;;;;;;;;;;;;17.32;100.00;99252.80;1678674;84;20107;-85
2021/08/17 04:07:35;;;;;;;;;;;;;;;17.34;100.00;99248.88;1680356;84;20199;-85
2021/08/17 04:10:01;;;;;;;;;;;;;;;17.37;100.00;99243.59;1682524;84;21106;-85
2021/08/17 04:12:28;;;;;;;;;;;;;;;17.34;100.00;99237.37;1680648;84;20230;-85
2021/08/17 04:14:54;;;;;;;;;;;;;;;17.32;100.00;99244.79;1681971;84;20571;-85
2021/08/17 04:17:23;;;;;;;;;;;;;;;17.36;100.00;99260.13;1680067;84;20148;-87
2021/08/17 04:19:49;;;;;;;;;;;;;;;17.23;100.00;99269.11;1679259;84;20215;-89
2021/08/17 04:22:14;;;;;;;;;;;;;;;17.20;100.00;99272.75;1651660;84;21806;-87
2021/08/17 04:24:42;;;;;;;;;;;;;;;17.19;100.00;99279.11;1679854;84;20162;-85
2021/08/17 04:27:08;;;;;;;;;;;;;;;17.22;100.00;99282.67;1680484;84;20555;-85
2021/08/17 04:29:37;;;;;;;;;;;;;;;17.25;100.00;99281.42;1676238;84;20455;-84
2021/08/17 04:32:04;;;;;;;;;;;;;;;17.28;100.00;99301.00;1678773;84;20207;-84
2021/08/17 04:34:32;;;;;;;;;;;;;;;17.10;100.00;99317.25;1679130;83;21298;-86
2021/08/17 04:37:01;;;;;;;;;;;;;;;17.29;100.00;99315.95;1679744;84;20124;-83
2021/08/17 04:39:26;;;;;;;;;;;;;;;17.18;100.00;99325.00;1680844;84;20207;-83
2021/08/17 04:41:52;;;;;;;;;;;;;;;17.02;100.00;99330.87;1678801;84;20136;-82
2021/08/17 04:44:17;;;;;;;;;;;;;;;16.95;100.00;99325.61;1679929;84;20162;-83
2021/08/17 04:46:43;;;;;;;;;;;;;;;16.90;100.00;99345.95;1682384;83;22234;-83
2021/08/17 04:49:09;;;;;;;;;;;;;;;16.90;100.00;99341.95;1678564;84;20398;-84
2021/08/17 04:51:34;;;;;;;;;;;;;;;16.85;100.00;99342.05;1681008;83;20219;-84
2021/08/17 04:54:00;;;;;;;;;;;;;;;16.94;100.00;99332.49;1686595;83;20783;-84
2021/08/17 04:56:25;;;;;;;;;;;;;;;16.77;100.00;99325.52;1682682;83;20136;-85
2021/08/17 04:58:51;;;;;;;;;;;;;;;16.79;100.00;99347.44;1682173;84;21319;-83
2021/08/17 05:01:19;;;;;;;;;;;;;;;16.80;100.00;99338.41;1682625;83;20839;-86
2021/08/17 05:03:48;;;;;;;;;;;;;;;16.80;100.00;99340.55;1679418;84;20151;-80
2021/08/17 05:06:13;;;;;;;;;;;;;;;16.80;100.00;99349.89;1683503;84;20150;-79
2021/08/17 05:08:40;;;;;;;;;;;;;;;16.79;100.00;99348.77;1676030;84;20146;-80
2021/08/17 05:11:06;;;;;;;;;;;;;;;16.66;100.00;99345.69;1681316;83;21186;-80
2021/08/17 05:13:31;;;;;;;;;;;;;;;16.68;100.00;99354.28;1656893;84;20137;-80
2021/08/17 05:15:59;;;;;;;;;;;;;;;16.66;100.00;99368.35;1679960;84;20182;-79
2021/08/17 05:18:24;;;;;;;;;;;;;;;16.72;100.00;99364.83;1674773;83;20346;-81
2021/08/17 05:20:50;;;;;;;;;;;;;;;16.71;100.00;99363.70;1678489;83;20146;-79
2021/08/17 05:23:16;;;;;;;;;;;;;;;16.66;100.00;99365.69;1681933;83;21118;-82
2021/08/17 05:25:43;;;;;;;;;;;;;;;16.62;100.00;99380.47;1677445;84;20534;-81
2021/08/17 05:28:09;;;;;;;;;;;;;;;16.57;100.00;99376.30;1682796;84;20132;-79
2021/08/17 05:30:36;;;;;;;;;;;;;;;16.51;100.00;99372.64;1678025;84;20785;-81
2021/08/17 05:33:02;;;;;;;;;;;;;;;16.56;100.00;99381.33;1676967;84;20130;-81
2021/08/17 05:35:27;;;;;;;;;;;;;;;16.54;100.00;99398.05;1680870;84;21089;-82
2021/08/17 05:37:53;;;;;;;;;;;;;;;16.43;100.00;99397.69;1682210;83;20172;-82
2021/08/17 05:40:18;;;;;;;;;;;;;;;16.49;100.00;99418.16;1677981;83;20190;-81
2021/08/17 05:42:44;;;;;;;;;;;;;;;16.41;100.00;99407.75;1680641;84;20653;-83
2021/08/17 05:45:12;;;;;;;;;;;;;;;16.39;100.00;99412.48;1647211;85;20353;-81
2021/08/17 05:47:42;;;;;;;;;;;;;;;16.41;100.00;99403.75;1679434;84;21245;-82
2021/08/17 05:50:10;;;;;;;;;;;;;;;16.33;100.00;99414.66;1675630;84;20229;-81
2021/08/17 05:52:38;;;;;;;;;;;;;;;16.27;100.00;99408.85;1680316;84;20123;-81
2021/08/17 05:55:07;;;;;;;;;;;;;;;16.30;100.00;99411.09;1676631;84;20185;-83
2021/08/17 05:57:32;;;;;;;;;;;;;;;16.37;100.00;99423.85;1660420;83;20505;-83
2021/08/17 06:00:00;;;;;;;;;;;;;;;16.23;100.00;99441.73;1655305;84;21184;-81
2021/08/17 06:02:26;;;;;;;;;;;;;;;16.20;100.00;99434.69;1657289;85;20228;-84
2021/08/17 06:04:51;;;;;;;;;;;;;;;16.19;100.00;99438.38;1655593;84;20197;-85
2021/08/17 06:07:17;;;;;;;;;;;;;;;16.18;100.00;99434.09;1656558;84;20130;-85
2021/08/17 06:09:43;;;;;;;;;;;;;;;16.17;100.00;99443.09;1656225;85;20168;-85
2021/08/17 06:12:09;;;;;;;;;;;;;;;16.09;100.00;99447.62;1654003;84;21996;-88
2021/08/17 06:14:36;;;;;;;;;;;;;;;16.15;100.00;99452.63;1659583;84;20128;-85
2021/08/17 06:17:02;;;;;;;;;;;;;;;16.15;100.00;99448.11;1658629;85;20141;-83
2021/08/17 06:19:28;;;;;;;;;;;;;;;16.17;100.00;99458.56;1655356;84;20200;-82
2021/08/17 06:21:53;;;;;;;;;;;;;;;16.23;100.00;99458.25;1656488;85;20745;-87
2021/08/17 06:24:22;;;;;;;;;;;;;;;16.26;100.00;99465.81;1655103;85;21189;-83
2021/08/17 06:26:49;;;;;;;;;;;;;;;16.37;100.00;99451.83;1651627;85;20192;-83
2021/08/17 06:29:16;;;;;;;;;;;;;;;16.27;100.00;99466.13;1632618;85;20176;-82
2021/08/17 06:31:42;;;;;;;;;;;;;;;16.17;100.00;99470.55;1652968;85;20181;-87
2021/08/17 06:34:07;;;;;;;;;;;;;;;16.06;100.00;99469.34;1656231;84;20441;-88
2021/08/17 06:36:39;;;;;;;;;;;;;;;15.93;98.77;99480.05;1655619;86;21172;-85
2021/08/17 06:39:07;;;;;;;;;;;;;;;15.89;99.03;99468.16;1658062;86;20156;-84
2021/08/17 06:41:33;;;;;;;;;;;;;;;15.83;94.90;99467.14;1653822;84;20467;-85
2021/08/17 06:43:58;;;;;;;;;;;;;;;15.81;91.67;99480.37;1654092;85;20239;-85
2021/08/17 06:46:26;;;;;;;;;;;;;;;15.74;89.68;99474.51;1657315;86;21042;-85
2021/08/17 06:48:54;;;;;;;;;;;;;;;15.76;88.51;99483.09;1655414;85;21225;-85
2021/08/17 06:51:19;;;;;;;;;;;;;;;15.73;87.09;99474.19;1656227;86;20195;-84
2021/08/17 06:53:45;;;;;;;;;;;;;;;15.70;85.12;99498.56;1655167;86;20655;-84
2021/08/17 06:56:10;;;;;;;;;;;;;;;15.64;84.87;99479.42;1658574;84;20205;-84
2021/08/17 06:58:36;;;;;;;;;;;;;;;15.67;85.55;99488.33;1680888;83;20156;-85
2021/08/17 07:01:02;;;;;;;;;;;;;;;15.71;84.82;99492.74;1674022;84;21861;-86
2021/08/17 07:03:29;;;;;;;;;;;;;;;15.74;84.79;99485.16;1676858;84;20154;-84
2021/08/17 07:05:54;;;;;;;;;;;;;;;15.66;84.65;99500.02;1679275;84;20210;-85
2021/08/17 07:08:20;;;;;;;;;;;;;;;15.85;83.51;99495.72;1675920;84;20180;-84
2021/08/17 07:10:46;;;;;;;;;;;;;;;15.92;83.40;99503.70;1679742;84;20223;-83
2021/08/17 07:13:12;;;;;;;;;;;;;;;15.87;83.04;99519.48;1678018;84;22007;-79
2021/08/17 07:15:37;;;;;;;;;;;;;;;15.95;83.24;99513.93;1680431;84;20144;-87
2021/08/17 07:18:05;;;;;;;;;;;;;;;15.98;82.76;99514.84;1679654;84;20466;-85
2021/08/17 07:20:30;;;;;;;;;;;;;;;16.06;81.44;99516.48;1677483;83;20219;-84
2021/08/17 07:22:56;;;;;;;;;;;;;;;16.10;81.93;99516.38;1676554;83;20386;-83
2021/08/17 07:25:21;;;;;;;;;;;;;;;16.15;81.35;99513.90;1680566;84;21015;-82
2021/08/17 07:27:47;;;;;;;;;;;;;;;16.17;80.68;99504.37;1679041;84;20147;-85
2021/08/17 07:30:14;;;;;;;;;;;;;;;16.12;81.02;99505.80;1678037;83;20127;-87
2021/08/17 07:32:41;;;;;;;;;;;;;;;16.20;81.07;99506.61;1682335;84;21282;-88
2021/08/17 07:35:08;;;;;;;;;;;;;;;16.34;81.23;99497.55;1682118;84;20097;-88
2021/08/17 07:37:34;;;;;;;;;;;;;;;16.40;81.28;99510.03;1680526;84;21293;-90
2021/08/17 07:40:00;;;;;;;;;;;;;;;16.46;81.92;99507.05;1683150;84;20193;-90
2021/08/17 07:42:25;;;;;;;;;;;;;;;16.48;82.22;99503.66;1683232;83;20158;-87
2021/08/17 07:44:51;;;;;;;;;;;;;;;16.41;82.98;99511.68;1681232;83;20165;-88
2021/08/17 07:47:16;;;;;;;;;;;;;;;16.46;82.48;99498.53;1676218;84;20217;-89
2021/08/17 07:49:42;;;;;;;;;;;;;;;16.64;81.82;99499.69;1675880;84;21251;-91
2021/08/17 07:52:07;;;;;;;;;;;;;;;16.66;79.76;99506.98;1678701;84;20462;-86
2021/08/17 07:54:33;;;;;;;;;;;;;;;16.61;78.45;99510.77;1680665;83;20183;-86
2021/08/17 07:56:58;;;;;;;;;;;;;;;16.47;78.48;99516.17;1679346;84;20830;-90
2021/08/17 07:59:24;;;;;;;;;;;;;;;16.72;79.56;99511.95;1685777;84;20178;-87
2021/08/17 08:01:50;;;;;;;;;;;;;;;16.66;80.91;99502.45;1676117;84;21096;-85
2021/08/17 08:04:15;;;;;;;;;;;;;;;16.70;81.62;99517.50;1682181;84;20197;-87
2021/08/17 08:06:41;;;;;;;;;;;;;;;16.71;81.65;99525.81;1682196;84;20208;-87
2021/08/17 08:09:06;;;;;;;;;;;;;;;16.79;81.88;99505.56;1675941;84;20197;-86
2021/08/17 08:11:32;;;;;;;;;;;;;;;16.98;82.06;99508.38;1676010;84;20190;-85
2021/08/17 08:13:58;;;;;;;;;;;;;;;16.93;82.45;99493.53;1673071;84;21149;-85
2021/08/17 08:16:24;;;;;;;;;;;;;;;16.96;79.48;99523.78;1683088;84;20324;-86
2021/08/17 08:18:50;;;;;;;;;;;;;;;16.95;79.22;99516.80;1677911;84;20149;-88
2021/08/17 08:21:15;;;;;;;;;;;;;;;17.03;78.02;99535.25;1671719;83;20183;-87
2021/08/17 08:23:41;;;;;;;;;;;;;;;17.08;77.31;99519.41;1668466;84;20154;-87
2021/08/17 08:26:06;;;;;;;;;;;;;;;17.19;78.30;99526.72;1673935;84;20503;-89
2021/08/17 08:28:32;;;;;;;;;;;;;;;17.22;79.15;99548.16;1671356;84;20471;-86
2021/08/17 08:30:57;;;;;;;;;;;;;;;17.19;80.50;99538.72;1672821;84;21704;-85
2021/08/17 08:33:23;;;;;;;;;;;;;;;17.15;80.82;99544.20;1674296;84;20439;-87
2021/08/17 08:35:48;;;;;;;;;;;;;;;17.02;80.61;99546.94;1678747;84;20212;-87
2021/08/17 08:38:14;;;;;;;;;;;;;;;17.13;82.05;99552.92;1678918;84;21103;-86
2021/08/17 08:40:41;;;;;;;;;;;;;;;17.04;78.70;99547.53;1671717;83;20148;-84
2021/08/17 08:43:07;;;;;;;;;;;;;;;17.07;76.94;99559.64;1675830;84;20222;-86
2021/08/17 08:45:32;;;;;;;;;;;;;;;17.02;77.51;99560.27;1684792;84;20767;-87
2021/08/17 08:47:58;;;;;;;;;;;;;;;16.97;77.79;99573.44;1678067;84;20146;-87
2021/08/17 08:50:23;;;;;;;;;;;;;;;17.01;76.36;99567.47;1681574;84;21251;-88
2021/08/17 08:52:50;;;;;;;;;;;;;;;16.91;74.71;99589.77;1676971;83;20696;-84
2021/08/17 08:55:15;;;;;;;;;;;;;;;17.02;73.70;99585.61;1683433;84;20189;-90
2021/08/17 08:57:41;;;;;;;;;;;;;;;17.01;74.48;99593.30;1681477;84;20126;-88
2021/08/17 09:00:09;;;;;;;;;;;;;;;17.04;75.87;99587.55;1685536;83;20208;-85
2021/08/17 09:02:35;;;;;;;;;;;;;;;17.02;76.48;99589.61;1686748;83;21976;-91
2021/08/17 09:05:00;;;;;;;;;;;;;;;16.97;76.00;99590.78;1685094;83;20163;-86
2021/08/17 09:07:40;;;;;;;;;;;;;;;16.86;74.55;99600.25;1684718;84;20316;-90
2021/08/17 09:10:11;;;;;;;;;;;;;;;16.72;71.62;99602.61;1659390;84;20876;-90
2021/08/17 09:12:39;;;;;;;;;;;;;;;16.65;72.29;99594.64;1679225;84;20217;-86
2021/08/17 09:15:08;;;;;;;;;;;;;;;16.76;72.22;99595.31;1687921;84;21038;-90
2021/08/17 09:17:33;;;;;;;;;;;;;;;16.74;72.90;99605.91;1684536;84;20165;-89
2021/08/17 09:19:59;;;;;;;;;;;;;;;16.78;72.65;99599.94;1686079;84;20885;-85
2021/08/17 09:22:26;;;;;;;;;;;;;;;16.85;73.18;99598.05;1686897;83;20151;-87
2021/08/17 09:24:54;;;;;;;;;;;;;;;16.83;73.79;99608.12;1685252;84;20280;-85
2021/08/17 09:27:21;;;;;;;;;;;;;;;16.75;73.69;99613.69;1684566;84;21899;-84
2021/08/17 09:29:49;;;;;;;;;;;;;;;16.94;73.30;99611.20;1658623;84;20127;-86
2021/08/17 09:32:22;;;;;;;;;;;;;;;17.06;73.36;99614.84;1681432;84;20190;-87
2021/08/17 09:34:50;;;;;;;;;;;;;;;17.02;74.34;99596.28;1684494;84;20356;-87
2021/08/17 09:37:16;;;;;;;;;;;;;;;16.93;73.25;99618.36;1684761;84;20502;-89
2021/08/17 09:39:47;;;;;;;;;;;;;;;16.95;73.94;99635.48;1686427;83;21138;-87
2021/08/17 09:42:27;;;;;;;;;;;;;;;16.80;74.96;99615.20;1682718;84;20156;-88
2021/08/17 09:45:08;;;;;;;;;;;;;;;16.96;74.92;99603.80;1686432;84;20144;-88
2021/08/17 09:47:34;;;;;;;;;;;;;;;17.03;75.84;99605.41;1685199;83;20203;-88
2021/08/17 09:50:22;;;;;;;;;;;;;;;16.89;75.12;99623.00;1684261;84;20206;-88
2021/08/17 09:52:48;;;;;;;;;;;;;;;16.92;74.19;99625.24;1680055;84;21115;-90
2021/08/17 09:55:16;;;;;;;;;;;;;;;16.98;74.83;99639.91;1686146;83;20130;-86
2021/08/17 09:57:42;;;;;;;;;;;;;;;16.84;75.12;99627.10;1682777;84;20503;-87
2021/08/17 10:00:14;;;;;;;;;;;;;;;16.92;74.67;99631.91;1681265;83;20234;-89
2021/08/17 10:02:35;;;;;;;;;;;;;;;16.90;75.14;99635.31;1682678;84;20182;-86
2021/08/17 10:05:01;;;;;;;;;;;;;;;16.97;74.63;99640.13;1683345;84;21923;-87
2021/08/17 10:07:26;;;;;;;;;;;;;;;16.97;75.74;99653.45;1681119;84;20131;-87
2021/08/17 10:09:52;;;;;;;;;;;;;;;17.20;75.87;99649.77;1680496;84;20252;-86
2021/08/17 10:12:18;;;;;;;;;;;;;;;17.28;74.82;99658.58;1680404;84;20253;-86
2021/08/17 10:14:43;;;;;;;;;;;;;;;17.21;75.39;99651.42;1679382;84;20513;-88
2021/08/17 10:17:09;;;;;;;;;;;;;;;17.10;75.59;99653.39;1681020;83;21087;-86
2021/08/17 10:19:34;;;;;;;;;;;;;;;17.30;75.29;99653.84;1676930;84;20147;-87
2021/08/17 10:22:01;;;;;;;;;;;;;;;17.33;73.52;99652.08;1655975;84;35456;-84
2021/08/17 10:24:45;;;;;;;;;;;;;;;17.32;72.22;99658.44;1683445;84;20249;-85
2021/08/17 10:27:36;;;;;;;;;;;;;;;17.36;70.52;99657.80;1678115;84;20958;-85
2021/08/17 10:30:07;;;;;;;;;;;;;;;17.48;70.33;99644.61;1649755;84;21001;-85
2021/08/17 10:32:48;;;;;;;;;;;;;;;17.39;70.24;99661.91;1679985;84;20218;-86
2021/08/17 10:35:30;;;;;;;;;;;;;;;17.50;69.86;99661.75;1681779;84;20576;-85
2021/08/17 10:38:14;;;;;;;;;;;;;;;17.46;69.77;99647.98;1676464;84;20407;-85
2021/08/17 10:40:52;;;;;;;;;;;;;;;17.36;69.79;99656.98;1678261;84;20167;-88
2021/08/17 10:43:19;;;;;;;;;;;;;;;17.29;69.44;99650.86;1677159;83;21355;-91
2021/08/17 10:45:55;;;;;;;;;;;;;;;17.29;68.81;99661.53;1675358;83;20178;-87
2021/08/17 10:48:50;;;;;;;;;;;;;;;17.40;68.37;99654.17;1681073;84;20428;-89
2021/08/17 10:51:23;;;;;;;;;;;;;;;17.56;67.80;99669.71;1674218;84;21146;-88
2021/08/17 10:54:08;;;;;;;;;;;;;;;17.73;68.65;99651.86;1678176;84;20168;-88
2021/08/17 10:56:35;;;;;;;;;;;;;;;17.80;67.76;99655.28;1677287;84;21058;-86
2021/08/17 10:59:01;;;;;;;;;;;;;;;17.81;67.91;99667.62;1676433;84;20163;-87
2021/08/17 11:01:49;;;;;;;;;;;;;;;17.82;68.12;99666.59;1680076;84;20242;-86
2021/08/17 11:04:19;;;;;;;;;;;;;;;17.97;68.60;99670.83;1681888;83;20489;-86
2021/08/17 11:06:50;;;;;;;;;;;;;;;18.12;68.54;99660.65;1691636;83;20124;-88
2021/08/17 11:09:28;;;;;;;;;;;;;;;18.19;68.69;99682.77;1677450;84;21012;-90
2021/08/17 11:12:04;;;;;;;;;;;;;;;18.10;67.58;99687.59;1678109;84;20184;-86
2021/08/17 11:14:33;;;;;;;;;;;;;;;18.25;67.66;99691.26;1683343;84;20202;-84
2021/08/17 11:17:00;;;;;;;;;;;;;;;18.12;66.16;99692.72;1683002;83;20727;-80
2021/08/17 11:19:34;;;;;;;;;;;;;;;18.28;66.45;99692.16;1680893;84;20166;-84
2021/08/17 11:22:04;;;;;;;;;;;;;;;17.94;65.87;99688.94;1681101;83;21101;-84
2021/08/17 11:24:31;;;;;;;;;;;;;;;17.99;66.52;99700.81;1679762;84;20226;-83
2021/08/17 11:27:17;;;;;;;;;;;;;;;17.77;66.91;99711.80;1679366;83;20233;-82
2021/08/17 11:29:48;;;;;;;;;;;;;;;17.81;68.22;99682.30;1681787;83;20191;-82
2021/08/17 11:32:30;;;;;;;;;;;;;;;17.80;68.54;99689.20;1681176;83;20288;-82
2021/08/17 11:34:56;;;;;;;;;;;;;;;17.71;68.46;99702.81;1681436;83;22140;-83
2021/08/17 11:37:22;;;;;;;;;;;;;;;17.74;67.78;99713.07;1679645;83;20263;-87
2021/08/17 11:39:55;;;;;;;;;;;;;;;17.71;68.07;99718.00;1683234;83;20214;-83
2021/08/17 11:42:25;;;;;;;;;;;;;;;17.72;68.53;99714.30;1684524;83;20139;-83
2021/08/17 11:45:00;;;;;;;;;;;;;;;17.89;68.58;99706.64;1684389;83;20264;-85
2021/08/17 11:47:29;;;;;;;;;;;;;;;17.92;68.07;99707.02;1681865;84;21096;-85
2021/08/17 11:49:55;;;;;;;;;;;;;;;18.08;67.50;99704.86;1687093;83;20443;-84
2021/08/17 11:52:23;;;;;;;;;;;;;;;17.92;67.62;99711.02;1681916;83;20175;-84
2021/08/17 11:54:54;;;;;;;;;;;;;;;18.00;67.85;99710.48;1680774;84;20179;-82
2021/08/17 11:57:22;;;;;;;;;;;;;;;18.04;67.99;99699.67;1679682;83;20542;-82
2021/08/17 11:59:48;;;;;;;;;;;;;;;18.19;68.33;99721.53;1680282;84;21296;-85
2021/08/17 12:02:25;;;;;;;;;;;;;;;18.22;67.25;99711.73;1682615;83;20154;-85
2021/08/17 12:04:54;;;;;;;;;;;;;;;18.22;65.95;99703.72;1678004;84;20200;-83
2021/08/17 12:07:20;;;;;;;;;;;;;;;18.33;66.43;99710.22;1681844;83;20175;-83
2021/08/17 12:09:47;;;;;;;;;;;;;;;18.48;66.30;99705.89;1652161;85;20286;-83
2021/08/17 12:12:15;;;;;;;;;;;;;;;18.43;65.31;99701.73;1680123;84;21152;-84
2021/08/17 12:14:41;;;;;;;;;;;;;;;18.54;64.88;99698.86;1682866;83;20210;-83
2021/08/17 12:17:07;;;;;;;;;;;;;;;18.44;64.50;99710.03;1680374;84;20266;-86
2021/08/17 12:19:33;;;;;;;;;;;;;;;18.45;63.72;99725.05;1680857;83;20169;-84
2021/08/17 12:22:00;;;;;;;;;;;;;;;18.39;63.41;99716.56;1682862;83;20880;-86
2021/08/17 12:24:27;;;;;;;;;;;;;;;18.38;64.54;99720.26;1675677;84;21090;-83
2021/08/17 12:26:55;;;;;;;;;;;;;;;18.21;63.58;99730.66;1677440;83;20165;-83
2021/08/17 12:29:24;;;;;;;;;;;;;;;18.30;63.77;99712.83;1677010;83;20488;-85
2021/08/17 12:31:53;;;;;;;;;;;;;;;18.43;62.17;99711.89;1677685;84;20230;-84
2021/08/17 12:34:19;;;;;;;;;;;;;;;18.62;62.78;99693.22;1679562;84;20215;-85
2021/08/17 12:36:50;;;;;;;;;;;;;;;18.94;62.32;99684.59;1681071;84;21150;-83
2021/08/17 12:39:23;;;;;;;;;;;;;;;19.06;61.64;99694.02;1679822;84;20150;-84
2021/08/17 12:41:57;;;;;;;;;;;;;;;19.21;62.26;99694.19;1679393;84;20126;-83